Elco, Pennsylvania
Current Conditions -  °F | °C
As of 2:53 PM on Wednesday 26 Nov 2014 (Local Time) from KAGC Reporting Station
Light Snow Light Snow  
Wind Chill: 27°   Ceiling: 300
Heat Index: 32°   Visibility: 0.75mi
Dew Point: 29°   Wind: 5mph
Humidity: 88%   Direction: 350°N
Pressure: 29.99"   Gusts: NA
Location:  40.08°N, 79.87°W
Report Text: KAGC 261953Z 35004KT 3/4SM R28/4500VP6000FT -SN BR OVC003 00/M02 A2999 RMK AO2 SLP173 P0001 T00001017
Loading
Personal Weather Stations






























Interactive Weather Map New forecast layout! Learn more

10-Day Weather Forecast

Advertisements
Track Severe Weather on mobile